Time;durP1;ratioP1;P1;durP2;ratioP2;P2;SDS_P1;SDS_P2;PMS_P1;PMS_P2;Temp;Humidity;BMP_temperature;BMP_pressure;BME280_temperature;BME280_humidity;BME280_pressure;Samples;Min_cycle;Max_cycle;Signal;HPM_P1;HPM_P2
2022/02/26 00:00:18;;;;;;;27.35;5.68;;;4.80;99.90;;;4.94;75.72;101863.03;4979743;28;20210;-68
2022/02/26 00:02:47;;;;;;;22.02;7.30;;;4.90;99.90;;;4.96;75.87;101869.06;4979379;28;20245;-68
2022/02/26 00:05:17;;;;;;;18.75;6.13;;;4.80;99.90;;;4.96;75.62;101871.75;4978797;28;20285;-69
2022/02/26 00:07:47;;;;;;;22.27;5.45;;;4.90;99.90;;;4.97;75.58;101879.69;4978629;28;20674;-68
2022/02/26 00:10:17;;;;;;;20.90;6.32;;;4.90;99.90;;;4.93;75.77;101877.41;4996261;28;20209;-68
2022/02/26 00:12:52;;;;;;;27.98;7.60;;;4.80;99.90;;;4.85;76.11;101882.63;4996523;28;20637;-68
2022/02/26 00:15:22;;;;;;;22.98;5.32;;;4.80;99.90;;;4.86;75.91;101884.31;4996216;28;20629;-68
2022/02/26 00:17:51;;;;;;;18.23;4.40;;;4.80;99.90;;;4.85;75.65;101885.31;4977924;28;20245;-67
2022/02/26 00:20:21;;;;;;;40.95;16.63;;;4.70;99.90;;;4.77;76.20;101888.69;4978378;28;20261;-68
2022/02/26 00:22:50;;;;;;;25.25;5.15;;;4.70;99.90;;;4.84;75.29;101897.03;4978107;28;20201;-68
2022/02/26 00:25:22;;;;;;;16.17;5.57;;;4.70;99.90;;;4.81;75.56;101896.31;4996131;28;20186;-69
2022/02/26 00:27:53;;;;;;;24.73;5.93;;;4.70;99.90;;;4.77;75.88;101896.75;4978065;28;20568;-68
2022/02/26 00:30:23;;;;;;;31.40;5.72;;;4.70;99.90;;;4.76;75.66;101892.38;4995921;28;20183;-68
2022/02/26 00:32:53;;;;;;;33.90;5.65;;;4.70;99.90;;;4.72;75.84;101902.53;4978219;28;20186;-68
2022/02/26 00:35:23;;;;;;;13.57;4.63;;;4.60;99.90;;;4.62;75.98;101890.94;4978538;28;20191;-69
2022/02/26 00:37:53;;;;;;;22.52;6.00;;;4.60;99.90;;;4.68;76.03;101902.97;4978975;28;20198;-68
2022/02/26 00:40:23;;;;;;;22.80;4.78;;;4.60;99.90;;;4.69;75.86;101908.19;4978225;28;20234;-68
2022/02/26 00:42:54;;;;;;;20.20;5.10;;;4.60;99.90;;;4.61;75.56;101908.00;4994507;28;20274;-67
2022/02/26 00:45:24;;;;;;;16.67;7.25;;;4.60;99.90;;;4.73;75.49;101914.97;4978245;28;20218;-66
2022/02/26 00:47:56;;;;;;;31.80;9.20;;;4.60;99.90;;;4.72;75.09;101918.63;4995614;28;20222;-70
2022/02/26 00:50:25;;;;;;;20.85;7.22;;;4.60;99.90;;;4.76;75.55;101924.53;4978001;28;20195;-67
2022/02/26 00:52:56;;;;;;;20.52;6.85;;;4.70;99.90;;;4.76;75.28;101921.88;4978103;28;20195;-69
2022/02/26 00:55:26;;;;;;;29.20;5.90;;;4.70;99.90;;;4.80;75.16;101931.31;4978066;28;20265;-68
2022/02/26 00:57:57;;;;;;;21.35;6.45;;;4.70;99.90;;;4.76;75.28;101933.44;4977889;28;20391;-69
2022/02/26 01:00:27;;;;;;;33.70;6.63;;;4.70;99.90;;;4.77;75.19;101943.19;4977992;28;20257;-68
2022/02/26 01:02:57;;;;;;;22.92;6.88;;;4.70;99.90;;;4.69;75.55;101940.38;4995329;28;20171;-67
2022/02/26 01:05:26;;;;;;;21.20;5.07;;;4.60;99.90;;;4.76;75.13;101944.16;4996237;28;20195;-68
2022/02/26 01:07:56;;;;;;;36.50;9.13;;;4.70;99.90;;;4.79;75.32;101951.09;4978078;28;20647;-69
2022/02/26 01:10:26;;;;;;;21.05;4.38;;;4.70;99.90;;;4.77;75.44;101950.38;5000810;28;20199;-67
2022/02/26 01:12:58;;;;;;;21.88;5.03;;;4.70;99.90;;;4.69;75.53;101956.47;4997708;28;20215;-68
2022/02/26 01:15:29;;;;;;;41.30;5.25;;;4.70;99.90;;;4.69;75.41;101955.59;4999504;28;20187;-69
2022/02/26 01:17:58;;;;;;;21.75;7.15;;;4.60;99.90;;;4.84;75.33;101964.09;4995576;28;20298;-68
2022/02/26 01:20:28;;;;;;;19.98;5.55;;;4.70;99.90;;;4.81;75.31;101966.06;4998959;28;20206;-69
2022/02/26 01:22:58;;;;;;;25.02;6.07;;;4.70;99.90;;;4.85;75.22;101969.31;4995526;28;20515;-70
2022/02/26 01:25:28;;;;;;;22.63;4.63;;;4.70;99.90;;;4.87;74.76;101969.16;4995606;28;20187;-69
2022/02/26 01:28:01;;;;;;;29.45;6.18;;;4.80;99.90;;;4.79;75.08;101972.56;4994398;28;20311;-66
2022/02/26 01:30:34;;;;;;;23.75;6.28;;;4.70;99.90;;;4.73;75.00;101965.91;4978191;28;20709;-69
2022/02/26 01:33:04;;;;;;;22.15;7.05;;;4.70;99.90;;;4.66;75.76;101977.31;4977958;28;20530;-67
2022/02/26 01:35:36;;;;;;;28.55;7.82;;;4.60;99.90;;;4.73;75.37;101973.97;4980658;28;20191;-70
2022/02/26 01:38:06;;;;;;;14.35;4.45;;;4.60;99.90;;;4.79;74.84;101968.00;5009973;28;20203;-68
2022/02/26 01:40:36;;;;;;;30.92;8.50;;;4.70;99.90;;;4.66;75.22;101974.63;5006961;28;20246;-69
2022/02/26 01:43:08;;;;;;;19.80;5.68;;;4.60;99.90;;;4.69;75.45;101983.28;5005823;28;20186;-67
2022/02/26 01:45:39;;;;;;;21.90;4.78;;;4.60;99.90;;;4.76;74.99;101981.72;4988016;28;20194;-69
2022/02/26 01:48:09;;;;;;;32.67;8.82;;;4.70;99.90;;;4.72;74.91;101987.50;5006989;28;20197;-70
2022/02/26 01:50:38;;;;;;;19.40;6.70;;;4.60;99.90;;;4.75;74.78;101988.06;5006963;28;20281;-69
2022/02/26 01:53:10;;;;;;;29.23;7.80;;;4.60;99.90;;;4.79;74.54;101989.47;4988785;28;20253;-69
2022/02/26 01:55:40;;;;;;;24.25;5.95;;;4.70;99.90;;;4.76;74.86;101987.06;5005968;28;20179;-69
2022/02/26 01:58:11;;;;;;;25.05;7.20;;;4.70;99.90;;;4.80;74.79;102001.91;4987998;28;20607;-67
2022/02/26 02:00:42;;;;;;;31.02;8.35;;;4.70;99.90;;;4.73;74.63;101990.03;5003468;28;20190;-68
2022/02/26 02:03:11;;;;;;;22.20;8.32;;;4.70;99.90;;;4.77;75.02;102002.19;5004939;28;20278;-69
2022/02/26 02:05:43;;;;;;;35.22;7.07;;;4.70;99.90;;;4.81;74.62;102002.75;5002744;28;20172;-68
2022/02/26 02:08:13;;;;;;;22.20;6.00;;;4.70;99.90;;;4.75;75.27;102003.28;4977760;28;20278;-69
2022/02/26 02:10:45;;;;;;;30.52;6.88;;;4.60;99.90;;;4.89;74.99;102010.13;4977717;28;20194;-68
2022/02/26 02:13:16;;;;;;;26.15;6.53;;;4.70;99.90;;;4.69;74.53;101999.34;4977228;28;20219;-69
2022/02/26 02:15:47;;;;;;;31.45;6.47;;;4.70;99.90;;;4.58;74.99;102015.53;4994405;28;20253;-69
2022/02/26 02:18:18;;;;;;;33.58;6.18;;;4.60;99.90;;;4.69;75.17;102010.09;4976688;28;20285;-68
2022/02/26 02:20:48;;;;;;;22.60;5.30;;;4.60;99.90;;;4.78;75.26;102016.44;4976533;28;20220;-67
2022/02/26 02:23:19;;;;;;;12.02;4.55;;;4.60;99.90;;;4.79;74.82;102027.00;4992498;28;20214;-68
2022/02/26 02:25:48;;;;;;;24.98;5.38;;;4.70;99.90;;;4.84;75.10;102017.75;4993854;28;20183;-68
2022/02/26 02:28:19;;;;;;;29.42;6.63;;;4.70;99.90;;;4.84;74.67;102023.09;4993776;28;20656;-68
2022/02/26 02:30:48;;;;;;;34.33;6.15;;;4.70;99.90;;;4.77;74.91;102018.28;4993849;28;20553;-68
2022/02/26 02:33:18;;;;;;;20.65;6.60;;;4.70;99.90;;;4.73;74.55;102021.38;4975899;28;20758;-69
2022/02/26 02:35:48;;;;;;;23.58;7.07;;;4.70;99.90;;;4.73;74.76;102022.22;4993590;28;20265;-67
2022/02/26 02:38:21;;;;;;;23.88;6.90;;;4.70;99.90;;;4.81;75.23;102032.25;4993310;28;20222;-69
2022/02/26 02:40:51;;;;;;;21.25;6.72;;;4.70;99.90;;;4.76;75.05;102035.34;4975289;28;20211;-68
2022/02/26 02:43:23;;;;;;;39.53;7.53;;;4.70;99.90;;;4.86;74.91;102039.88;4993176;28;20207;-70
2022/02/26 02:45:53;;;;;;;26.92;6.55;;;4.70;99.90;;;4.90;74.65;102035.94;4975420;28;20199;-67
2022/02/26 02:48:23;;;;;;;18.50;4.55;;;4.70;99.90;;;4.92;74.58;102047.38;4992818;28;20265;-68
2022/02/26 02:50:53;;;;;;;22.10;6.97;;;4.80;99.90;;;4.86;74.89;102047.94;4975510;28;20211;-66
2022/02/26 02:53:26;;;;;;;16.50;6.20;;;4.80;99.90;;;4.82;74.68;102047.38;4992548;28;20245;-68
2022/02/26 02:56:02;;;;;;;30.17;5.97;;;4.70;99.90;;;4.64;75.39;102044.50;5019419;23;20221;-78
2022/02/26 02:58:37;;;;;;;20.45;5.78;;;4.70;99.90;;;4.67;75.64;102044.22;5012613;28;20607;-78
2022/02/26 03:01:11;;;;;;;17.35;5.18;;;4.60;99.90;;;4.65;75.32;102054.22;4997365;28;20214;-79
2022/02/26 03:03:46;;;;;;;30.65;6.82;;;4.60;99.90;;;4.62;75.45;102049.13;4999868;28;20193;-79
2022/02/26 03:06:20;;;;;;;30.52;6.03;;;4.60;99.90;;;4.58;75.56;102061.13;4999213;28;20182;-79
2022/02/26 03:08:56;;;;;;;27.80;7.03;;;4.50;99.90;;;4.68;75.73;102059.31;4996732;28;20763;-78
2022/02/26 03:11:34;;;;;;;26.23;5.13;;;4.60;99.90;;;4.60;76.42;102063.69;4996277;28;20622;-80
2022/02/26 03:14:09;;;;;;;23.92;5.25;;;4.60;99.90;;;4.68;76.02;102063.84;5013574;28;20236;-78
2022/02/26 03:16:42;;;;;;;25.25;6.60;;;4.60;1.00;;;4.55;76.41;102071.28;4996604;28;20664;-78
2022/02/26 03:19:15;;;;;;;19.92;5.20;;;4.50;1.00;;;4.71;75.78;102064.41;4998170;28;20230;-79
2022/02/26 03:21:51;;;;;;;21.63;6.63;;;4.60;1.00;;;4.71;75.80;102066.22;5017865;28;20194;-79
2022/02/26 03:24:25;;;;;;;14.38;5.03;;;4.60;1.00;;;4.76;75.56;102074.72;5002426;28;20232;-78
2022/02/26 03:27:01;;;;;;;22.88;5.72;;;4.60;1.00;;;4.70;75.72;102075.25;5014109;28;20221;-78
2022/02/26 03:29:32;;;;;;;19.73;5.40;;;4.70;1.00;;;4.69;76.29;102084.31;4996512;28;20233;-78
2022/02/26 03:32:07;;;;;;;20.63;4.95;;;4.60;1.00;;;4.62;76.12;102078.63;4998005;28;20665;-78
2022/02/26 03:34:38;;;;;;;23.45;7.57;;;4.60;1.00;;;4.65;76.05;102082.84;5014512;28;20178;-78
2022/02/26 03:37:11;;;;;;;24.88;5.28;;;4.60;1.00;;;4.57;76.01;102086.22;5004244;28;20207;-80
2022/02/26 03:39:48;;;;;;;20.67;5.57;;;4.50;1.00;;;4.54;76.11;102086.50;5023849;28;20209;-78
2022/02/26 03:42:24;;;;;;;15.80;5.22;;;4.50;1.00;;;4.45;76.39;102094.50;4996470;28;20766;-78
2022/02/26 03:44:57;;;;;;;29.92;9.70;;;4.40;1.00;;;4.47;76.47;102101.41;4996620;28;20205;-78
2022/02/26 03:47:30;;;;;;;24.40;5.47;;;4.40;1.00;;;4.43;76.62;102099.97;4995756;28;20194;-77
2022/02/26 03:50:07;;;;;;;21.23;4.60;;;4.40;99.90;;;4.45;76.85;102108.75;4996861;28;20591;-79
2022/02/26 03:52:39;;;;;;;22.90;5.88;;;4.40;99.90;;;4.34;76.79;102109.69;4999590;28;20280;-78
2022/02/26 03:55:11;;;;;;;23.00;5.55;;;4.30;99.90;;;4.35;76.85;102107.84;5018324;28;20537;-79
2022/02/26 03:57:48;;;;;;;15.27;4.60;;;4.30;99.90;;;4.21;77.41;102106.34;5015953;28;20653;-78
2022/02/26 04:00:24;;;;;;;22.73;6.57;;;4.20;99.90;;;4.06;78.10;102113.03;4999755;28;20313;-78
2022/02/26 04:03:00;;;;;;;33.60;8.23;;;4.10;99.90;;;4.03;77.98;102123.13;5018910;28;20202;-79
2022/02/26 04:05:35;;;;;;;27.98;7.05;;;4.00;99.90;;;4.03;77.77;102132.03;5000366;28;20202;-79
2022/02/26 04:08:10;;;;;;;17.75;4.82;;;4.00;99.90;;;3.91;78.16;102135.75;5000284;28;20197;-79
2022/02/26 04:10:40;;;;;;;20.83;6.90;;;3.90;99.90;;;3.82;78.71;102137.38;5000940;28;20225;-79
2022/02/26 04:13:12;;;;;;;23.17;5.97;;;3.80;99.90;;;3.82;78.66;102148.09;5018555;28;20655;-78
2022/02/26 04:15:49;;;;;;;25.05;6.30;;;3.80;99.90;;;3.76;78.64;102148.59;4998362;28;20215;-79
2022/02/26 04:18:24;;;;;;;25.55;6.15;;;3.80;99.90;;;3.71;78.84;102145.44;5013220;28;20175;-79
2022/02/26 04:20:58;;;;;;;25.33;7.85;;;3.70;99.90;;;3.77;78.74;102162.84;5016521;28;20249;-79
2022/02/26 04:23:36;;;;;;;23.55;6.28;;;3.70;99.90;;;3.67;79.00;102170.78;5017266;28;20392;-79
2022/02/26 04:26:10;;;;;;;23.92;6.75;;;3.70;99.90;;;3.71;79.40;102182.94;5020794;28;20221;-78
2022/02/26 04:28:39;;;;;;;29.58;5.93;;;3.60;99.90;;;3.71;79.13;102177.56;5020868;28;20214;-79
2022/02/26 04:31:08;;;;;;;21.73;5.90;;;3.70;99.90;;;3.70;79.32;102191.94;5017419;28;20240;-80
2022/02/26 04:33:37;;;;;;;21.52;4.93;;;3.70;99.90;;;3.78;79.17;102197.50;5020235;28;20210;-78
2022/02/26 04:36:07;;;;;;;22.55;6.43;;;3.70;99.90;;;3.73;79.46;102201.53;5019740;28;20260;-79
2022/02/26 04:38:36;;;;;;;42.17;7.25;;;3.70;99.90;;;3.82;78.99;102206.16;5016553;28;20233;-77
2022/02/26 04:41:08;;;;;;;27.35;5.80;;;3.80;99.90;;;3.87;78.79;102210.13;5019979;28;20228;-80
2022/02/26 04:43:42;;;;;;;15.80;4.25;;;3.80;99.90;;;3.86;78.37;102207.59;5024039;28;20762;-78
2022/02/26 04:46:11;;;;;;;26.35;5.25;;;3.80;99.90;;;3.77;78.65;102214.56;5019257;28;20531;-79
2022/02/26 04:48:41;;;;;;;19.58;5.88;;;3.70;99.90;;;3.83;78.60;102224.75;5018181;28;20208;-80
2022/02/26 04:51:10;;;;;;;23.58;5.70;;;3.70;99.90;;;3.87;78.38;102220.81;5018939;28;20406;-78
2022/02/26 04:53:41;;;;;;;29.92;6.40;;;3.80;99.90;;;3.76;78.17;102222.72;5017828;28;20221;-80
2022/02/26 04:56:12;;;;;;;24.77;5.15;;;3.80;99.90;;;3.99;78.23;102236.88;5017394;28;20193;-78
2022/02/26 04:58:42;;;;;;;26.65;6.75;;;3.90;99.90;;;3.89;78.30;102234.09;5000801;28;20222;-79
2022/02/26 05:01:11;;;;;;;16.55;4.95;;;3.90;99.90;;;4.02;78.02;102233.97;5019535;28;20191;-78
2022/02/26 05:03:43;;;;;;;22.10;4.53;;;3.90;99.90;;;4.04;77.57;102242.69;5019346;28;20592;-79
2022/02/26 05:06:13;;;;;;;35.33;7.95;;;4.00;99.90;;;4.01;77.49;102242.97;5018824;28;20639;-79
2022/02/26 05:08:42;;;;;;;24.95;5.55;;;3.90;99.90;;;4.12;77.48;102251.78;5019173;28;20209;-78
2022/02/26 05:11:13;;;;;;;26.63;6.38;;;4.00;99.90;;;4.16;76.98;102255.94;5024094;28;20516;-79
2022/02/26 05:13:43;;;;;;;17.50;5.57;;;4.10;99.90;;;4.08;77.24;102255.72;5000510;28;20190;-79
2022/02/26 05:16:12;;;;;;;17.13;4.70;;;4.10;99.90;;;4.23;77.09;102261.63;5025551;28;20171;-79
2022/02/26 05:18:42;;;;;;;23.20;5.00;;;4.10;99.90;;;4.33;76.36;102260.72;5017489;28;20268;-78
2022/02/26 05:21:11;;;;;;;27.85;7.03;;;4.30;99.90;;;4.34;76.29;102280.34;5016655;28;20262;-79
2022/02/26 05:23:42;;;;;;;17.13;4.32;;;4.30;99.90;;;4.36;76.35;102278.38;5011751;28;20391;-80
2022/02/26 05:26:14;;;;;;;21.05;5.00;;;4.30;99.90;;;4.43;76.50;102282.25;5015170;28;20221;-79
2022/02/26 05:28:44;;;;;;;17.17;5.43;;;4.30;99.90;;;4.50;75.99;102291.50;5025182;28;20198;-80
2022/02/26 05:31:13;;;;;;;17.10;5.25;;;4.40;99.90;;;4.47;76.13;102297.09;5001753;28;20270;-78
2022/02/26 05:33:43;;;;;;;21.15;5.65;;;4.40;99.90;;;4.54;76.08;102310.84;5017993;28;20582;-79
2022/02/26 05:36:12;;;;;;;29.35;7.03;;;4.50;99.90;;;4.65;75.63;102308.94;5006388;28;20184;-79
2022/02/26 05:38:42;;;;;;;16.80;5.63;;;4.50;99.90;;;4.47;75.69;102309.66;5033509;28;20217;-79
2022/02/26 05:41:12;;;;;;;28.27;6.25;;;4.50;99.90;;;4.63;75.80;102318.97;5034091;28;20335;-79
2022/02/26 05:43:42;;;;;;;27.48;5.50;;;4.50;99.90;;;4.75;75.52;102325.97;5033033;28;20175;-79
2022/02/26 05:46:13;;;;;;;20.13;5.60;;;4.60;99.90;;;4.75;75.16;102331.34;5026055;28;20229;-80
2022/02/26 05:48:43;;;;;;;18.85;6.90;;;4.60;99.90;;;4.67;75.26;102328.47;5020146;28;20324;-79
2022/02/26 05:51:15;;;;;;;15.40;6.00;;;4.60;99.90;;;4.71;75.35;102332.56;5000193;28;20669;-79
2022/02/26 05:53:44;;;;;;;17.08;4.93;;;4.60;99.90;;;4.66;75.42;102340.16;5018216;28;20182;-78
2022/02/26 05:56:17;;;;;;;22.23;5.90;;;4.60;99.90;;;4.81;74.91;102336.19;5017329;28;20660;-79
2022/02/26 05:58:50;;;;;;;27.60;5.50;;;4.70;99.90;;;4.80;75.26;102349.72;5001280;28;20222;-78
2022/02/26 06:01:23;;;;;;;23.20;6.30;;;4.70;99.90;;;4.81;75.17;102354.97;5017947;28;20178;-79
2022/02/26 06:03:56;;;;;;;19.00;5.20;;;4.70;99.90;;;4.92;74.71;102358.56;5021185;28;20258;-79
2022/02/26 06:06:27;;;;;;;20.90;4.88;;;4.80;99.90;;;4.81;75.01;102357.66;5019181;28;20177;-79
2022/02/26 06:08:59;;;;;;;21.58;5.72;;;4.80;99.90;;;4.88;74.88;102362.50;5001717;28;20763;-79
2022/02/26 06:11:31;;;;;;;20.73;4.30;;;4.80;99.90;;;4.81;74.82;102368.38;5020847;28;20174;-79
2022/02/26 06:14:01;;;;;;;29.58;6.18;;;4.70;99.90;;;4.88;74.73;102375.91;5022611;28;20185;-79
2022/02/26 06:16:30;;;;;;;23.58;4.05;;;4.70;99.90;;;4.85;74.69;102374.31;5021497;28;20173;-78
2022/02/26 06:19:01;;;;;;;18.38;5.50;;;4.80;99.90;;;4.89;74.88;102383.81;5020259;28;20232;-80
2022/02/26 06:21:40;;;;;;;14.57;4.72;;;4.80;99.90;;;4.79;74.99;102381.03;5002079;28;20221;-77
2022/02/26 06:24:14;;;;;;;18.20;5.25;;;4.80;1.00;;;4.85;74.88;102389.56;5001064;28;20201;-78
2022/02/26 06:26:46;;;;;;;15.73;4.95;;;4.80;1.00;;;4.85;74.54;102395.78;5021416;28;20182;-80
2022/02/26 06:29:18;;;;;;;17.70;5.07;;;4.80;1.00;;;4.85;74.79;102401.16;5023948;28;20233;-79
2022/02/26 06:31:50;;;;;;;15.57;4.82;;;4.80;1.00;;;4.78;74.46;102398.16;5005900;28;20198;-79
2022/02/26 06:34:22;;;;;;;21.42;6.75;;;4.70;1.00;;;4.71;75.24;102394.25;5025682;28;20186;-78
2022/02/26 06:36:52;;;;;;;22.83;6.20;;;4.70;1.00;;;4.68;75.21;102402.56;5009072;28;20202;-80
2022/02/26 06:39:21;;;;;;;20.10;4.45;;;4.60;1.00;;;4.84;75.01;102420.06;5026961;28;20206;-78
2022/02/26 06:41:54;;;;;;;33.33;5.75;;;4.70;1.00;;;4.85;75.21;102421.75;5019679;28;20205;-79
2022/02/26 06:44:28;;;;;;;20.77;4.95;;;4.70;1.00;;;4.90;74.97;102420.41;5020710;28;20315;-79
2022/02/26 06:46:59;;;;;;;30.25;5.47;;;4.80;1.00;;;4.89;74.59;102425.91;5019599;28;20186;-80
2022/02/26 06:49:32;;;;;;;32.65;5.88;;;4.80;1.00;;;4.98;73.88;102427.81;5019033;28;20210;-80
2022/02/26 06:52:01;;;;;;;23.10;6.85;;;4.90;99.90;;;5.04;74.48;102432.66;5020213;28;20272;-79
2022/02/26 06:54:32;;;;;;;31.70;6.32;;;4.90;99.90;;;5.08;73.63;102444.84;5017500;28;20280;-80
2022/02/26 06:57:05;;;;;;;19.17;5.50;;;5.00;99.90;;;5.11;74.16;102456.16;5020070;28;20174;-78
2022/02/26 06:59:35;;;;;;;17.95;4.75;;;5.00;99.90;;;5.08;73.54;102450.22;5023583;28;20209;-79
2022/02/26 07:02:05;;;;;;;15.82;4.10;;;5.00;99.90;;;5.01;73.77;102460.59;5023535;28;20190;-80
2022/02/26 07:04:36;;;;;;;29.15;5.20;;;4.90;99.90;;;5.03;73.57;102464.03;5030462;28;20174;-79
2022/02/26 07:07:06;;;;;;;18.10;6.38;;;4.90;99.90;;;5.16;73.06;102472.75;5033910;28;20193;-79
2022/02/26 07:09:37;;;;;;;16.75;5.05;;;5.00;99.90;;;5.08;72.90;102479.72;5016475;28;20450;-79
2022/02/26 07:12:11;;;;;;;15.70;5.65;;;5.00;99.90;;;5.11;73.38;102476.78;5031570;28;20205;-79
2022/02/26 07:14:44;;;;;;;12.57;4.50;;;5.00;99.90;;;5.27;72.61;102487.94;5017120;28;20193;-79
2022/02/26 07:17:16;;;;;;;17.15;6.38;;;5.10;99.90;;;5.06;72.37;102485.22;5035527;28;20166;-79
2022/02/26 07:19:52;;;;;;;17.65;4.65;;;5.00;99.90;;;5.08;72.83;102488.59;5018227;28;20245;-80
2022/02/26 07:22:29;;;;;;;17.75;4.82;;;5.00;99.90;;;5.10;72.26;102491.16;5017663;28;20205;-81
2022/02/26 07:24:59;;;;;;;14.50;4.90;;;5.00;99.90;;;5.12;72.75;102505.34;5020006;28;20174;-80
2022/02/26 07:27:33;;;;;;;18.45;4.38;;;5.10;99.90;;;5.00;72.51;102506.34;5022650;28;20178;-81
2022/02/26 07:30:15;;;;;;;16.85;4.35;;;5.00;99.90;;;5.11;72.70;102522.41;5021905;28;20234;-79
2022/02/26 07:32:51;;;;;;;18.27;4.35;;;5.00;99.90;;;5.05;72.46;102520.22;5004792;28;20182;-80
2022/02/26 07:35:22;;;;;;;10.45;3.97;;;5.00;99.90;;;5.18;71.77;102531.66;5022739;28;20184;-80
2022/02/26 07:37:54;;;;;;;11.70;5.35;;;5.10;99.90;;;4.91;72.36;102528.56;5025671;28;20198;-80
2022/02/26 07:40:31;;;;;;;22.38;4.30;;;5.00;99.90;;;4.87;72.53;102521.75;5022222;28;20209;-80
2022/02/26 07:43:09;;;;;;;19.33;4.28;;;4.90;99.90;;;4.92;72.63;102541.00;5029093;28;20208;-80
2022/02/26 07:45:43;;;;;;;25.08;7.25;;;4.90;99.90;;;4.97;72.72;102536.97;5031626;28;20178;-78
2022/02/26 07:48:20;;;;;;;20.23;5.05;;;4.90;99.90;;;5.00;72.70;102541.22;5014037;28;20194;-79
2022/02/26 07:50:57;;;;;;;39.03;24.33;;;4.90;99.90;;;4.99;72.78;102548.41;5018594;28;20181;-81
2022/02/26 07:53:30;;;;;;;84.10;48.90;;;4.90;99.90;;;5.02;72.69;102547.31;5014470;28;20193;-78
2022/02/26 07:55:59;;;;;;;16.23;7.03;;;4.90;99.90;;;4.98;72.66;102545.88;5027046;28;20216;-80
2022/02/26 07:58:30;;;;;;;10.30;4.80;;;4.90;99.90;;;5.07;72.25;102545.13;5024077;28;20246;-79
2022/02/26 08:01:00;;;;;;;18.75;5.20;;;5.00;99.90;;;5.23;71.81;102556.25;5020976;28;20178;-79
2022/02/26 08:03:29;;;;;;;15.73;8.93;;;5.10;99.90;;;5.19;71.19;102549.44;5003975;28;20214;-79
2022/02/26 08:05:59;;;;;;;13.48;5.00;;;5.10;99.90;;;5.25;71.43;102571.28;5022862;28;20166;-79
2022/02/26 08:08:28;;;;;;;17.52;4.07;;;5.10;99.90;;;5.22;71.14;102560.81;5006757;28;20610;-80
2022/02/26 08:10:58;;;;;;;19.10;5.13;;;5.20;99.90;;;5.37;71.00;102568.56;5022047;28;20178;-77
2022/02/26 08:13:31;;;;;;;33.78;6.47;;;5.30;99.90;;;5.27;70.43;102573.84;5020624;28;20173;-79
2022/02/26 08:16:02;;;;;;;11.25;3.90;;;5.20;99.90;;;5.33;69.62;102577.81;5004724;28;20219;-80
2022/02/26 08:18:31;;;;;;;20.92;4.75;;;5.30;99.90;;;5.37;70.23;102580.16;5021097;28;20178;-78
2022/02/26 08:21:00;;;;;;;13.23;4.25;;;5.30;99.90;;;5.38;69.89;102581.84;5022960;28;20229;-79
2022/02/26 08:23:30;;;;;;;21.80;4.38;;;5.30;99.90;;;5.32;70.44;102582.38;5021044;28;20281;-78
2022/02/26 08:26:00;;;;;;;15.05;4.10;;;5.20;99.90;;;5.40;69.87;102592.47;5004462;28;20580;-79
2022/02/26 08:28:31;;;;;;;9.68;4.05;;;5.30;99.90;;;5.24;70.05;102596.41;5022864;28;20178;-79
2022/02/26 08:31:01;;;;;;;14.48;3.75;;;5.20;99.90;;;5.41;70.76;102597.72;5022454;28;20209;-79
2022/02/26 08:33:31;;;;;;;24.52;8.98;;;5.30;99.90;;;5.43;69.76;102606.47;5007188;28;20206;-79
2022/02/26 08:36:01;;;;;;;20.42;4.43;;;5.30;99.90;;;5.60;69.97;102605.94;5024663;28;20600;-79
2022/02/26 08:38:30;;;;;;;25.40;8.35;;;5.40;99.90;;;5.48;69.62;102615.00;5034035;23;20226;-69
2022/02/26 08:41:02;;;;;;;18.27;5.25;;;5.40;99.90;;;5.58;69.87;102626.69;5015672;28;20253;-69
2022/02/26 08:43:33;;;;;;;16.30;5.20;;;5.50;99.90;;;5.72;68.97;102630.91;5015248;28;20645;-69
2022/02/26 08:46:04;;;;;;;20.42;6.15;;;5.50;99.90;;;5.47;68.63;102629.41;4995069;28;20219;-68
2022/02/26 08:48:33;;;;;;;13.18;4.70;;;5.40;99.90;;;5.44;69.40;102635.03;4990713;28;20186;-71
2022/02/26 08:51:05;;;;;;;26.05;8.50;;;5.40;99.90;;;5.39;69.78;102641.75;4995912;28;20233;-67
2022/02/26 08:53:35;;;;;;;25.85;7.55;;;5.40;99.90;;;5.46;69.21;102651.03;5152164;23;20190;-69
2022/02/26 08:56:04;;;;;;;5.47;3.67;;;5.40;99.90;;;5.73;68.95;102645.19;4978373;28;20199;-69
2022/02/26 08:58:35;;;;;;;16.48;5.53;;;5.50;99.90;;;5.58;68.90;102650.88;4995597;28;20187;-68
2022/02/26 09:01:04;;;;;;;14.48;5.63;;;5.50;99.90;;;5.52;69.10;102664.78;4995645;28;20258;-68
2022/02/26 09:03:33;;;;;;;9.43;3.67;;;5.50;99.90;;;5.62;68.67;102660.38;4995597;28;20207;-70
2022/02/26 09:06:02;;;;;;;11.57;3.50;;;5.50;99.90;;;5.71;68.40;102668.66;4996290;28;20679;-70
2022/02/26 09:08:32;;;;;;;12.73;4.10;;;5.60;99.90;;;5.33;68.73;102669.97;4995645;28;20183;-69
2022/02/26 09:11:00;;;;;;;25.27;7.80;;;5.40;99.90;;;5.37;68.88;102670.59;4995781;28;20177;-70
2022/02/26 09:13:29;;;;;;;17.70;6.05;;;5.40;99.90;;;5.53;69.13;102671.88;4995203;28;20285;-69
2022/02/26 09:16:01;;;;;;;14.13;3.45;;;5.40;99.90;;;5.77;67.69;102678.88;4995571;28;20270;-69
2022/02/26 09:18:31;;;;;;;13.00;4.82;;;5.50;99.90;;;5.60;68.70;102680.28;4996534;28;20588;-70
2022/02/26 09:21:00;;;;;;;16.80;5.30;;;5.60;99.90;;;5.63;68.38;102685.41;4995546;28;20666;-70
2022/02/26 09:23:29;;;;;;;14.18;4.72;;;5.60;99.90;;;5.70;68.58;102694.66;4995606;28;20209;-70
2022/02/26 09:25:58;;;;;;;18.98;3.58;;;5.60;99.90;;;5.85;68.23;102696.09;4995735;28;20182;-70
2022/02/26 09:28:27;;;;;;;7.78;3.08;;;5.70;99.90;;;5.72;68.29;102702.59;5007166;28;20218;-70
2022/02/26 09:30:56;;;;;;;11.80;4.70;;;5.70;99.90;;;5.73;68.67;102699.78;5006802;28;20197;-71
2022/02/26 09:33:27;;;;;;;10.80;3.65;;;5.60;99.90;;;5.81;67.87;102696.47;5007048;28;20206;-70
2022/02/26 09:35:56;;;;;;;15.43;4.30;;;5.70;99.90;;;5.67;67.90;102706.50;5008279;28;20175;-70
2022/02/26 09:38:25;;;;;;;6.97;4.10;;;5.60;99.90;;;5.77;68.28;102711.13;5003195;28;20191;-70
2022/02/26 09:40:56;;;;;;;6.55;2.90;;;5.70;99.90;;;5.82;67.63;102714.28;4998698;28;20241;-71
2022/02/26 09:43:26;;;;;;;10.85;3.13;;;5.70;99.90;;;5.73;67.67;102725.78;4997604;28;20217;-69
2022/02/26 09:45:56;;;;;;;9.60;3.25;;;5.70;99.90;;;5.79;67.45;102722.59;4984619;28;20278;-71
2022/02/26 09:48:28;;;;;;;10.60;3.00;;;5.70;99.90;;;5.72;68.16;102729.44;4976643;28;20198;-71
2022/02/26 09:50:58;;;;;;;12.13;3.83;;;5.60;99.90;;;5.67;68.26;102733.38;4959543;28;20199;-70
2022/02/26 09:53:27;;;;;;;5.20;2.55;;;5.60;99.90;;;5.67;67.27;102738.75;4975237;28;20215;-69
2022/02/26 09:55:58;;;;;;;9.55;3.05;;;5.60;99.90;;;5.82;67.53;102743.81;4975123;28;20179;-70
2022/02/26 09:58:27;;;;;;;11.73;3.90;;;5.70;99.90;;;5.95;66.96;102750.81;4974998;28;20570;-70
2022/02/26 10:00:56;;;;;;;12.80;4.00;;;5.80;99.90;;;6.11;67.03;102753.06;4975654;28;20602;-70
2022/02/26 10:03:30;;;;;;;13.00;3.25;;;5.90;99.90;;;6.02;67.25;102748.44;4974895;28;20211;-69
2022/02/26 10:06:08;;;;;;;8.43;3.40;;;5.90;99.90;;;5.86;67.19;102748.81;4975096;28;20196;-70
2022/02/26 10:08:42;;;;;;;11.40;3.30;;;5.80;99.90;;;5.90;67.10;102757.53;4974998;28;20571;-70
2022/02/26 10:11:26;;;;;;;8.80;2.67;;;5.80;99.90;;;5.54;68.41;102746.09;4974681;28;20178;-70
2022/02/26 10:14:02;;;;;;;10.48;3.42;;;5.50;99.90;;;5.71;68.05;102754.63;4974723;28;20211;-70
2022/02/26 10:16:46;;;;;;;14.52;3.78;;;5.60;99.90;;;5.77;67.97;102754.97;4974889;28;20200;-70
2022/02/26 10:19:26;;;;;;;12.05;3.80;;;5.60;99.90;;;5.93;68.09;102760.81;4957450;28;20282;-70
2022/02/26 10:21:58;;;;;;;6.80;2.95;;;5.80;99.90;;;6.24;66.85;102763.66;4974946;28;20207;-71
2022/02/26 10:24:32;;;;;;;7.72;2.55;;;6.00;99.90;;;5.98;67.71;102773.88;4957533;28;20306;-70
2022/02/26 10:27:06;;;;;;;8.32;2.78;;;5.90;99.90;;;5.90;67.84;102771.84;4974278;28;20238;-70
2022/02/26 10:29:38;;;;;;;9.73;4.07;;;5.80;99.90;;;6.10;67.69;102776.38;4974363;28;20180;-70
2022/02/26 10:32:10;;;;;;;8.52;2.85;;;5.90;99.90;;;6.04;67.34;102773.38;4974474;28;20172;-70
2022/02/26 10:34:44;;;;;;;7.97;3.53;;;5.90;99.90;;;6.16;67.35;102780.41;4974573;28;20290;-70
2022/02/26 10:37:16;;;;;;;9.85;3.00;;;6.00;99.90;;;6.36;67.05;102779.59;4975130;28;20183;-69